createdAt,value
2018-05-11T00:00:07.414Z,6.20
2018-05-11T00:02:34.829Z,7.77
2018-05-11T00:05:02.228Z,6.37
2018-05-11T00:07:29.632Z,7.00
2018-05-11T00:09:57.031Z,6.10
2018-05-11T00:12:24.439Z,9.53
2018-05-11T00:14:51.839Z,6.50
2018-05-11T00:17:19.240Z,7.70
2018-05-11T00:19:47.416Z,8.50
2018-05-11T00:22:14.835Z,7.40
2018-05-11T00:24:42.235Z,5.37
2018-05-11T00:27:09.639Z,6.30
2018-05-11T00:29:37.053Z,6.47
2018-05-11T00:32:04.456Z,6.53
2018-05-11T00:34:31.867Z,5.67
2018-05-11T00:36:59.275Z,7.67
2018-05-11T00:39:27.454Z,7.80
2018-05-11T00:41:54.924Z,8.90
2018-05-11T00:44:22.331Z,7.57
2018-05-11T00:46:50.527Z,11.17
2018-05-11T00:49:17.972Z,8.63
2018-05-11T00:51:45.371Z,6.67
2018-05-11T00:54:13.543Z,7.80
2018-05-11T00:56:40.976Z,8.33
2018-05-11T00:59:09.140Z,6.67
2018-05-11T01:01:37.300Z,9.13
2018-05-11T01:04:04.705Z,6.17
2018-05-11T01:06:32.107Z,5.80
2018-05-11T01:08:59.503Z,5.97
2018-05-11T01:11:27.666Z,7.37
2018-05-11T01:13:55.848Z,6.70
2018-05-11T01:16:23.247Z,8.60
2018-05-11T01:18:50.660Z,13.90
2018-05-11T01:21:18.258Z,6.93
2018-05-11T01:23:46.390Z,7.13
2018-05-11T01:26:13.895Z,7.90
2018-05-11T01:28:41.296Z,6.47
2018-05-11T01:31:09.464Z,8.93
2018-05-11T01:33:37.630Z,7.90
2018-05-11T01:36:05.035Z,8.13
2018-05-11T01:38:32.435Z,6.83
2018-05-11T01:40:59.845Z,9.43
2018-05-11T01:43:28.014Z,7.17
2018-05-11T01:45:55.468Z,10.27
2018-05-11T01:48:22.867Z,9.63
2018-05-11T01:50:50.263Z,8.53
2018-05-11T01:53:17.675Z,10.63
2018-05-11T01:55:45.079Z,13.23
2018-05-11T01:58:12.483Z,8.10
2018-05-11T02:00:39.876Z,7.90
2018-05-11T02:03:08.043Z,9.07
2018-05-11T02:05:36.235Z,8.20
2018-05-11T02:08:03.636Z,10.73
2018-05-11T02:10:31.798Z,9.27
2018-05-11T02:12:59.968Z,9.63
2018-05-11T02:15:27.376Z,11.40
2018-05-11T02:17:54.771Z,8.53
2018-05-11T02:20:22.207Z,9.53
2018-05-11T02:22:49.599Z,9.67
2018-05-11T02:25:17.002Z,11.90
2018-05-11T02:27:44.408Z,9.67
2018-05-11T02:30:12.577Z,11.30
2018-05-11T02:32:39.984Z,20.67
2018-05-11T02:35:07.393Z,13.77
2018-05-11T02:37:34.798Z,11.47
2018-05-11T02:40:02.208Z,12.03
2018-05-11T02:42:29.611Z,9.60
2018-05-11T02:44:57.012Z,15.47
2018-05-11T02:47:24.443Z,12.47
2018-05-11T02:49:52.627Z,12.23
2018-05-11T02:52:20.028Z,14.27
2018-05-11T02:54:47.437Z,14.63
2018-05-11T02:57:14.845Z,16.60
2018-05-11T02:59:43.008Z,16.77
2018-05-11T03:02:10.431Z,15.10
2018-05-11T03:04:38.603Z,17.07
2018-05-11T03:07:06.003Z,18.00
2018-05-11T03:09:33.416Z,20.53
2018-05-11T03:12:00.823Z,15.83
2018-05-11T03:14:28.245Z,15.33
2018-05-11T03:16:56.414Z,14.97
2018-05-11T03:19:24.589Z,14.00
2018-05-11T03:21:51.988Z,14.37
2018-05-11T03:24:20.160Z,18.57
2018-05-11T03:26:48.335Z,18.47
2018-05-11T03:29:16.507Z,16.20
2018-05-11T03:31:43.914Z,15.83
2018-05-11T03:34:12.086Z,13.70
2018-05-11T03:36:40.258Z,13.30
2018-05-11T03:39:07.663Z,13.10
2018-05-11T03:41:35.835Z,11.27
2018-05-11T03:44:04.006Z,17.13
2018-05-11T03:46:32.187Z,12.70
2018-05-11T03:48:59.583Z,10.97
2018-05-11T03:51:26.994Z,11.13
2018-05-11T03:53:54.425Z,10.83
2018-05-11T03:56:21.826Z,16.23
2018-05-11T03:58:49.240Z,13.37
2018-05-11T04:01:28.508Z,11.10
2018-05-11T04:04:07.807Z,15.77
2018-05-11T04:06:48.023Z,10.90
2018-05-11T04:09:15.448Z,17.60
2018-05-11T04:11:42.855Z,13.97
2018-05-11T04:14:10.259Z,11.60
2018-05-11T04:16:38.431Z,12.20
2018-05-11T04:19:05.847Z,11.43
2018-05-11T04:21:33.249Z,17.07
2018-05-11T04:24:00.651Z,12.63
2018-05-11T04:26:28.827Z,11.07
2018-05-11T04:28:56.232Z,14.90
2018-05-11T04:31:23.649Z,12.53
2018-05-11T04:33:51.051Z,13.30
2018-05-11T04:36:18.467Z,14.37
2018-05-11T04:38:46.640Z,13.70
2018-05-11T04:41:14.043Z,13.83
2018-05-11T04:43:41.458Z,13.20
2018-05-11T04:46:08.867Z,15.33
2018-05-11T04:48:36.278Z,11.23
2018-05-11T04:51:03.688Z,12.03
2018-05-11T04:53:31.112Z,11.63
2018-05-11T04:55:58.507Z,17.97
2018-05-11T04:58:26.687Z,12.23
2018-05-11T05:00:54.083Z,12.30
2018-05-11T05:05:48.512Z,8.50
2018-05-11T05:08:15.915Z,8.87
2018-05-11T05:10:43.312Z,7.53
2018-05-11T05:13:10.719Z,8.03
2018-05-11T05:15:38.882Z,7.87
2018-05-11T05:18:06.290Z,8.47
2018-05-11T05:20:33.783Z,9.73
2018-05-11T05:23:01.196Z,8.27
2018-05-11T05:25:29.362Z,9.87
2018-05-11T05:27:56.772Z,9.73
2018-05-11T05:30:24.176Z,11.00
2018-05-11T05:32:51.583Z,9.97
2018-05-11T05:35:19.751Z,11.47
2018-05-11T05:40:14.137Z,10.40
2018-05-11T05:42:41.547Z,9.75
2018-05-11T05:45:09.720Z,11.90
2018-05-11T05:47:37.131Z,9.15
2018-05-11T05:54:58.471Z,12.27
2018-05-11T05:57:25.878Z,10.07
2018-05-11T05:59:53.295Z,13.77
2018-05-11T06:02:20.753Z,10.17
2018-05-11T06:04:48.111Z,10.10
2018-05-11T06:07:16.279Z,10.77
2018-05-11T06:09:43.695Z,10.70
2018-05-11T06:12:11.103Z,10.90
2018-05-11T06:14:38.519Z,8.93
2018-05-11T06:17:05.925Z,8.30
2018-05-11T06:19:33.415Z,8.20
2018-05-11T06:22:00.871Z,8.07
2018-05-11T06:24:28.990Z,7.17
2018-05-11T06:26:56.419Z,8.67
2018-05-11T06:29:24.591Z,7.00
2018-05-11T06:31:51.998Z,12.00
2018-05-11T06:34:19.415Z,8.27
2018-05-11T06:36:47.592Z,9.93
2018-05-11T06:39:16.507Z,7.13
2018-05-11T06:41:43.902Z,7.10
2018-05-11T06:44:11.308Z,7.93
2018-05-11T06:46:38.731Z,11.60
2018-05-11T06:49:06.148Z,6.70
2018-05-11T06:51:33.534Z,8.20
2018-05-11T06:54:00.951Z,7.20
2018-05-11T06:56:29.110Z,8.70
2018-05-11T06:58:56.518Z,5.37
2018-05-11T07:01:24.695Z,8.27
2018-05-11T07:03:52.883Z,18.43
2018-05-11T07:06:20.292Z,15.23
2018-05-11T07:08:48.468Z,6.33
2018-05-11T07:11:16.635Z,9.13
2018-05-11T07:13:44.046Z,8.07
2018-05-11T07:16:12.235Z,10.23
2018-05-11T07:18:39.635Z,8.83
2018-05-11T07:21:07.041Z,9.07
2018-05-11T07:23:34.451Z,6.47
2018-05-11T07:26:01.872Z,8.60
2018-05-11T07:28:30.040Z,7.53
2018-05-11T07:30:58.210Z,7.23
2018-05-11T07:33:25.676Z,10.70
2018-05-11T07:35:53.092Z,7.80
2018-05-11T07:38:20.500Z,11.47
2018-05-11T07:40:47.915Z,10.57
2018-05-11T07:43:15.369Z,10.80
2018-05-11T07:45:42.735Z,13.40
2018-05-11T07:48:10.908Z,10.20
2018-05-11T07:50:38.323Z,6.60
2018-05-11T07:53:05.736Z,12.00
2018-05-11T07:55:33.138Z,12.80
2018-05-11T07:58:00.547Z,16.40
2018-05-11T08:00:27.956Z,12.80
2018-05-11T08:02:55.358Z,12.87
2018-05-11T08:05:22.770Z,11.50
2018-05-11T08:07:50.184Z,16.07
2018-05-11T08:10:17.590Z,17.83
2018-05-11T08:12:45.064Z,12.60
2018-05-11T08:15:12.450Z,13.67
2018-05-11T08:17:40.630Z,12.20
2018-05-11T08:20:08.038Z,15.90
2018-05-11T08:22:36.232Z,18.97
2018-05-11T08:25:03.627Z,17.10
2018-05-11T08:27:31.034Z,18.30
2018-05-11T08:29:58.447Z,16.03
2018-05-11T08:32:25.865Z,15.80
2018-05-11T08:34:53.272Z,19.57
2018-05-11T08:37:20.695Z,19.17
2018-05-11T08:39:48.099Z,19.03
2018-05-11T08:42:16.278Z,19.77
2018-05-11T08:44:43.684Z,16.07
2018-05-11T08:47:11.090Z,15.30
2018-05-11T08:49:38.515Z,21.20
2018-05-11T08:52:05.955Z,17.37
2018-05-11T08:54:33.365Z,16.47
2018-05-11T08:57:01.534Z,15.60
2018-05-11T08:59:28.950Z,20.53
2018-05-11T09:01:57.131Z,18.10
2018-05-11T09:04:24.538Z,17.50
2018-05-11T09:06:51.958Z,14.83
2018-05-11T09:09:19.375Z,17.13
2018-05-11T09:11:46.783Z,16.63
2018-05-11T09:14:14.955Z,18.77
2018-05-11T09:16:42.363Z,16.33
2018-05-11T09:19:09.774Z,17.87
2018-05-11T09:21:37.191Z,17.53
2018-05-11T09:24:04.603Z,15.53
2018-05-11T09:26:32.798Z,17.67
2018-05-11T09:29:00.211Z,17.10
2018-05-11T09:31:28.387Z,16.67
2018-05-11T09:33:55.842Z,17.03
2018-05-11T09:36:23.257Z,20.53
2018-05-11T09:38:50.667Z,17.87
2018-05-11T09:41:18.076Z,18.13
2018-05-11T09:43:45.495Z,17.17
2018-05-11T09:46:12.911Z,13.87
2018-05-11T09:48:41.101Z,18.50
2018-05-11T09:51:08.503Z,14.67
2018-05-11T09:53:36.674Z,14.03
2018-05-11T09:56:04.094Z,16.43
2018-05-11T09:58:31.499Z,17.13
2018-05-11T10:00:58.915Z,13.97
2018-05-11T10:03:26.331Z,17.33
2018-05-11T10:05:54.527Z,15.93
2018-05-11T10:08:21.920Z,13.57
2018-05-11T10:10:49.331Z,15.13
2018-05-11T10:13:16.764Z,13.53
2018-05-11T10:15:44.160Z,13.37
2018-05-11T10:18:12.341Z,13.67
2018-05-11T10:20:39.755Z,15.33
2018-05-11T10:23:07.961Z,16.90
2018-05-11T10:25:35.366Z,15.30
2018-05-11T10:28:03.543Z,13.63
2018-05-11T10:30:30.971Z,12.57
2018-05-11T10:32:59.134Z,13.87
2018-05-11T10:35:26.543Z,12.87
2018-05-11T10:37:54.758Z,13.73
2018-05-11T10:40:22.179Z,11.97
2018-05-11T10:42:49.634Z,10.73
2018-05-11T10:45:17.066Z,12.97
2018-05-11T10:47:44.463Z,12.87
2018-05-11T10:50:11.875Z,11.23
2018-05-11T10:52:39.300Z,11.80
2018-05-11T10:55:06.726Z,13.43
2018-05-11T10:57:34.148Z,12.93
2018-05-11T11:00:02.316Z,12.40
2018-05-11T11:02:29.812Z,12.10
2018-05-11T11:04:57.130Z,12.75
2018-05-11T11:07:24.536Z,12.37
2018-05-11T11:09:51.951Z,12.87
2018-05-11T11:17:13.283Z,13.30
2018-05-11T11:19:40.696Z,15.00
2018-05-11T11:22:08.103Z,14.80
2018-05-11T11:24:35.517Z,14.00
2018-05-11T11:27:02.921Z,15.13
2018-05-11T11:29:30.331Z,14.33
2018-05-11T11:31:57.743Z,11.20
2018-05-11T11:34:25.199Z,11.73
2018-05-11T11:36:53.332Z,10.53
2018-05-11T11:39:20.730Z,11.67
2018-05-11T11:41:48.142Z,12.97
2018-05-11T11:44:15.543Z,10.88
2018-05-11T11:46:42.951Z,10.77
2018-05-11T11:49:10.350Z,9.43
2018-05-11T11:51:37.761Z,9.63
2018-05-11T11:54:05.926Z,9.35
2018-05-11T11:56:33.347Z,10.80
2018-05-11T11:59:00.759Z,13.07
2018-05-11T12:01:28.163Z,10.73
2018-05-11T12:03:55.570Z,9.70
2018-05-11T12:06:23.755Z,11.65
2018-05-11T12:08:51.171Z,13.25
2018-05-11T12:11:18.859Z,10.93
2018-05-11T12:13:47.007Z,11.60
2018-05-11T12:16:14.414Z,13.07
2018-05-11T12:18:41.824Z,12.20
2018-05-11T12:21:09.237Z,12.13
2018-05-11T12:23:36.643Z,13.90
2018-05-11T12:26:04.055Z,13.00
2018-05-11T12:28:31.464Z,11.23
2018-05-11T12:30:58.890Z,11.60
2018-05-11T12:33:26.291Z,13.55
2018-05-11T12:35:53.703Z,12.07
2018-05-11T12:38:21.111Z,11.57
2018-05-11T12:40:48.535Z,11.43
2018-05-11T12:43:16.712Z,12.68
2018-05-11T12:45:44.127Z,11.50
2018-05-11T12:48:12.304Z,11.02
2018-05-11T12:50:40.475Z,13.03
2018-05-11T12:53:07.886Z,10.90
2018-05-11T12:55:36.062Z,14.80
2018-05-11T12:58:04.247Z,11.98
2018-05-11T13:00:31.655Z,10.70
2018-05-11T13:02:59.955Z,12.25
2018-05-11T13:05:27.376Z,11.27
2018-05-11T13:07:54.779Z,12.20
2018-05-11T13:10:22.179Z,10.30
2018-05-11T13:12:49.628Z,9.85
2018-05-11T13:15:17.001Z,9.27
2018-05-11T13:17:44.411Z,12.05
2018-05-11T13:20:11.837Z,12.40
2018-05-11T13:22:39.235Z,9.55
2018-05-11T13:25:07.407Z,10.57
2018-05-11T13:27:35.587Z,9.95
2018-05-11T13:30:02.995Z,11.70
2018-05-11T13:32:31.167Z,9.63
2018-05-11T13:34:58.580Z,10.02
2018-05-11T13:37:25.996Z,10.32
2018-05-11T13:39:53.404Z,9.85
2018-05-11T13:42:20.812Z,10.30
2018-05-11T13:44:48.219Z,10.00
2018-05-11T13:49:43.360Z,12.05
2018-05-11T13:52:11.535Z,11.75
2018-05-11T13:54:38.947Z,12.93
2018-05-11T13:57:07.122Z,11.20
2018-05-11T14:06:55.474Z,11.30
2018-05-11T14:09:22.878Z,10.98
2018-05-11T14:21:39.692Z,9.82
2018-05-11T14:38:50.426Z,11.00
2018-05-11T14:41:17.843Z,10.95
2018-05-11T15:35:14.791Z,9.43
2018-05-11T15:40:09.163Z,10.85
2018-05-11T15:52:25.216Z,8.70
2018-05-11T16:04:42.019Z,9.02
2018-05-11T16:07:09.435Z,9.82
2018-05-11T16:09:37.598Z,8.68
2018-05-11T16:12:05.770Z,8.77
2018-05-11T16:14:33.192Z,10.38
2018-05-11T16:17:01.375Z,9.97
2018-05-11T16:19:28.787Z,11.50
2018-05-11T16:21:56.959Z,9.40
2018-05-11T16:26:52.091Z,9.93
2018-05-11T16:31:47.252Z,9.48
2018-05-11T17:01:15.103Z,9.30
2018-05-11T17:03:43.271Z,7.80
2018-05-11T17:08:37.643Z,9.10
2018-05-11T17:11:05.051Z,8.05
2018-05-11T17:16:00.190Z,10.60
2018-05-11T17:18:27.595Z,9.63
2018-05-11T17:20:55.797Z,10.18
2018-05-11T17:23:23.198Z,9.80
2018-05-11T17:25:51.370Z,9.00
2018-05-11T17:28:18.775Z,8.40
2018-05-11T17:30:46.179Z,8.65
2018-05-11T17:33:13.603Z,10.18
2018-05-11T17:35:41.011Z,9.40
2018-05-11T17:38:09.198Z,9.17
2018-05-11T17:40:36.611Z,8.60
2018-05-11T17:43:04.012Z,8.60
2018-05-11T17:45:31.419Z,8.90
2018-05-11T17:50:27.319Z,8.43
2018-05-11T17:52:55.492Z,9.47
2018-05-11T17:55:22.903Z,8.87
2018-05-11T17:57:50.315Z,8.70
2018-05-11T18:00:17.725Z,8.03
2018-05-11T18:02:45.130Z,8.90
2018-05-11T18:05:13.295Z,8.17
2018-05-11T18:07:41.514Z,9.17
2018-05-11T18:10:08.932Z,8.60
2018-05-11T18:15:03.310Z,8.80
2018-05-11T18:17:30.702Z,9.23
2018-05-11T18:19:58.098Z,9.27
2018-05-11T18:22:25.495Z,9.50
2018-05-11T18:24:53.663Z,12.53
2018-05-11T18:27:21.071Z,13.37
2018-05-11T18:29:48.476Z,9.93
2018-05-11T18:32:15.888Z,11.77
2018-05-11T18:34:43.286Z,9.00
2018-05-11T18:37:10.691Z,10.67
2018-05-11T18:39:38.191Z,9.55
2018-05-11T18:42:06.266Z,9.75
2018-05-11T18:47:00.663Z,9.97
2018-05-11T18:49:28.065Z,12.40
2018-05-11T18:51:56.251Z,11.40
2018-05-11T18:54:24.215Z,10.57
2018-05-11T18:56:51.115Z,12.03
2018-05-11T18:59:18.518Z,11.07
2018-05-11T19:01:46.017Z,11.53
2018-05-11T19:04:13.339Z,11.13
2018-05-11T19:06:40.764Z,11.53
2018-05-11T19:09:08.171Z,12.27
2018-05-11T19:11:35.583Z,12.73
2018-05-11T19:14:02.995Z,12.30
2018-05-11T19:16:31.162Z,12.10
2018-05-11T19:18:58.637Z,11.77
2018-05-11T19:21:26.044Z,12.47
2018-05-11T19:23:54.223Z,13.03
2018-05-11T19:26:21.631Z,16.27
2018-05-11T19:28:49.825Z,13.47
2018-05-11T19:31:17.243Z,13.60
2018-05-11T19:33:44.650Z,13.07
2018-05-11T19:36:12.065Z,12.90
2018-05-11T19:38:39.479Z,14.03
2018-05-11T19:41:06.882Z,20.53
2018-05-11T19:43:34.295Z,14.17
2018-05-11T19:46:01.715Z,16.97
2018-05-11T19:48:29.130Z,17.60
2018-05-11T19:50:56.551Z,14.07
2018-05-11T19:53:23.966Z,14.87
2018-05-11T19:55:51.401Z,14.47
2018-05-11T19:58:18.810Z,15.73
2018-05-11T20:00:46.224Z,15.00
2018-05-11T20:03:14.414Z,15.20
2018-05-11T20:05:41.831Z,14.87
2018-05-11T20:08:10.017Z,15.97
2018-05-11T20:10:37.423Z,16.10
2018-05-11T20:13:05.595Z,16.43
2018-05-11T20:15:33.779Z,14.80
2018-05-11T20:18:01.187Z,16.70
2018-05-11T20:20:29.375Z,16.10
2018-05-11T20:22:56.783Z,15.67
2018-05-11T20:25:24.968Z,14.77
2018-05-11T20:27:52.379Z,15.77
2018-05-11T20:30:20.552Z,16.63
2018-05-11T20:32:48.778Z,15.77
2018-05-11T20:35:16.135Z,20.67
2018-05-11T20:37:44.318Z,15.90
2018-05-11T20:40:14.648Z,20.03
2018-05-11T20:42:42.055Z,17.07
2018-05-11T20:45:10.251Z,17.27
2018-05-11T20:47:37.666Z,18.47
2018-05-11T20:50:05.086Z,16.30
2018-05-11T20:52:32.485Z,17.30
2018-05-11T20:54:59.899Z,16.93
2018-05-11T20:57:27.319Z,18.27
2018-05-11T20:59:55.495Z,17.80
2018-05-11T21:02:24.479Z,18.50
2018-05-11T21:04:51.933Z,18.30
2018-05-11T21:07:20.071Z,17.83
2018-05-11T21:09:47.488Z,18.83
2018-05-11T21:12:15.668Z,19.50
2018-05-11T21:14:43.152Z,18.57
2018-05-11T21:17:10.493Z,17.70
2018-05-11T21:19:37.930Z,19.20
2018-05-11T21:22:05.345Z,18.50
2018-05-11T21:24:32.757Z,19.50
2018-05-11T21:27:00.184Z,19.63
2018-05-11T21:29:28.343Z,18.93
2018-05-11T21:31:55.754Z,20.37
2018-05-11T21:34:23.164Z,18.50
2018-05-11T21:36:50.578Z,20.17
2018-05-11T21:39:18.757Z,19.67
2018-05-11T21:41:46.930Z,20.30
2018-05-11T21:44:14.346Z,20.13
2018-05-11T21:46:42.518Z,20.00
2018-05-11T21:49:09.927Z,21.60
2018-05-11T21:51:37.339Z,22.10
2018-05-11T21:54:04.747Z,22.33
2018-05-11T21:56:32.167Z,20.87
2018-05-11T21:59:00.339Z,21.03
2018-05-11T22:01:27.755Z,21.47
2018-05-11T22:03:55.931Z,21.23
2018-05-11T22:06:24.107Z,21.20
2018-05-11T22:08:51.519Z,20.97
2018-05-11T22:11:20.221Z,21.50
2018-05-11T22:13:47.630Z,21.23
2018-05-11T22:16:15.811Z,21.53
2018-05-11T22:18:43.219Z,22.53
2018-05-11T22:21:10.635Z,23.10
2018-05-11T22:23:38.051Z,23.20
2018-05-11T22:26:05.459Z,23.13
2018-05-11T22:28:33.659Z,23.67
2018-05-11T22:31:01.072Z,23.70
2018-05-11T22:33:28.487Z,22.83
2018-05-11T22:35:55.911Z,23.70
2018-05-11T22:40:51.796Z,25.60
2018-05-11T22:43:19.208Z,24.40
2018-05-11T22:45:46.614Z,25.07
2018-05-11T22:48:14.027Z,25.73
2018-05-11T22:50:41.443Z,25.53
2018-05-11T22:53:08.855Z,26.17
2018-05-11T22:55:37.047Z,25.13
2018-05-11T22:58:04.470Z,26.70
2018-05-11T23:00:37.003Z,25.77
2018-05-11T23:03:04.420Z,25.80
2018-05-11T23:05:31.823Z,25.20
2018-05-11T23:10:26.195Z,25.70
2018-05-11T23:12:53.618Z,25.80
2018-05-11T23:15:21.787Z,27.50
2018-05-11T23:17:49.200Z,26.20
2018-05-11T23:20:17.379Z,29.13
2018-05-11T23:30:06.436Z,27.20
2018-05-11T23:32:33.860Z,29.20
2018-05-11T23:35:02.048Z,29.13
2018-05-11T23:37:29.447Z,26.50
